sensor_id;sensor_type;location;lat;lon;timestamp;P1;durP1;ratioP1;P2;durP2;ratioP2
34814;SDS011;21030;53.912;15.214;2023-04-05T00:00:36;0.35;;;0.20;;
34814;SDS011;21030;53.912;15.214;2023-04-05T00:03:04;0.20;;;0.20;;
34814;SDS011;21030;53.912;15.214;2023-04-05T00:05:32;0.00;;;0.00;;
34814;SDS011;21030;53.912;15.214;2023-04-05T00:07:59;0.50;;;0.40;;
34814;SDS011;21030;53.912;15.214;2023-04-05T00:10:28;1.85;;;0.45;;
34814;SDS011;21030;53.912;15.214;2023-04-05T00:12:56;0.30;;;0.30;;
34814;SDS011;21030;53.912;15.214;2023-04-05T00:15:24;0.17;;;0.17;;
34814;SDS011;21030;53.912;15.214;2023-04-05T00:17:54;0.60;;;0.60;;
34814;SDS011;21030;53.912;15.214;2023-04-05T00:20:21;0.20;;;0.15;;
34814;SDS011;21030;53.912;15.214;2023-04-05T00:22:49;0.00;;;0.00;;
34814;SDS011;21030;53.912;15.214;2023-04-05T00:25:16;0.15;;;0.13;;
34814;SDS011;21030;53.912;15.214;2023-04-05T00:27:44;0.00;;;0.00;;
34814;SDS011;21030;53.912;15.214;2023-04-05T00:30:11;0.82;;;0.77;;
34814;SDS011;21030;53.912;15.214;2023-04-05T00:32:46;1.08;;;0.55;;
34814;SDS011;21030;53.912;15.214;2023-04-05T00:35:15;0.80;;;0.10;;
34814;SDS011;21030;53.912;15.214;2023-04-05T00:37:43;0.50;;;0.28;;
34814;SDS011;21030;53.912;15.214;2023-04-05T00:40:10;0.20;;;0.13;;
34814;SDS011;21030;53.912;15.214;2023-04-05T00:42:37;3.72;;;0.30;;
34814;SDS011;21030;53.912;15.214;2023-04-05T00:45:04;0.03;;;0.03;;
34814;SDS011;21030;53.912;15.214;2023-04-05T00:47:31;1.10;;;0.20;;
34814;SDS011;21030;53.912;15.214;2023-04-05T00:49:59;0.32;;;0.25;;
34814;SDS011;21030;53.912;15.214;2023-04-05T00:52:26;0.08;;;0.08;;
34814;SDS011;21030;53.912;15.214;2023-04-05T00:54:54;0.00;;;0.00;;
34814;SDS011;21030;53.912;15.214;2023-04-05T00:57:22;0.40;;;0.40;;
34814;SDS011;21030;53.912;15.214;2023-04-05T00:59:50;0.05;;;0.00;;
34814;SDS011;21030;53.912;15.214;2023-04-05T01:02:20;1.25;;;0.52;;
34814;SDS011;21030;53.912;15.214;2023-04-05T01:05:01;0.00;;;0.00;;
34814;SDS011;21030;53.912;15.214;2023-04-05T01:10:09;0.88;;;0.35;;
34814;SDS011;21030;53.912;15.214;2023-04-05T01:12:39;0.50;;;0.25;;
34814;SDS011;21030;53.912;15.214;2023-04-05T01:15:07;0.52;;;0.20;;
34814;SDS011;21030;53.912;15.214;2023-04-05T01:17:34;0.05;;;0.05;;
34814;SDS011;21030;53.912;15.214;2023-04-05T01:20:05;0.40;;;0.40;;
34814;SDS011;21030;53.912;15.214;2023-04-05T01:30:40;0.20;;;0.20;;
34814;SDS011;21030;53.912;15.214;2023-04-05T01:38:44;2.25;;;0.70;;
34814;SDS011;21030;53.912;15.214;2023-04-05T01:41:14;0.80;;;0.35;;
34814;SDS011;21030;53.912;15.214;2023-04-05T01:43:41;0.38;;;0.28;;
34814;SDS011;21030;53.912;15.214;2023-04-05T01:46:08;0.22;;;0.15;;
34814;SDS011;21030;53.912;15.214;2023-04-05T01:48:36;1.48;;;1.02;;
34814;SDS011;21030;53.912;15.214;2023-04-05T01:51:03;7.28;;;0.40;;
34814;SDS011;21030;53.912;15.214;2023-04-05T01:53:30;0.90;;;0.80;;
34814;SDS011;21030;53.912;15.214;2023-04-05T01:56:00;0.03;;;0.03;;
34814;SDS011;21030;53.912;15.214;2023-04-05T01:58:27;0.55;;;0.47;;
34814;SDS011;21030;53.912;15.214;2023-04-05T02:00:55;0.00;;;0.00;;
34814;SDS011;21030;53.912;15.214;2023-04-05T02:03:22;0.20;;;0.20;;
34814;SDS011;21030;53.912;15.214;2023-04-05T02:05:50;0.00;;;0.00;;
34814;SDS011;21030;53.912;15.214;2023-04-05T02:08:17;0.73;;;0.50;;
34814;SDS011;21030;53.912;15.214;2023-04-05T02:10:46;0.10;;;0.10;;
34814;SDS011;21030;53.912;15.214;2023-04-05T02:13:14;0.00;;;0.00;;
34814;SDS011;21030;53.912;15.214;2023-04-05T02:15:46;0.00;;;0.00;;
34814;SDS011;21030;53.912;15.214;2023-04-05T02:18:14;0.52;;;0.32;;
34814;SDS011;21030;53.912;15.214;2023-04-05T02:20:48;0.77;;;0.30;;
34814;SDS011;21030;53.912;15.214;2023-04-05T02:23:19;0.00;;;0.00;;
34814;SDS011;21030;53.912;15.214;2023-04-05T02:25:47;0.80;;;0.65;;
34814;SDS011;21030;53.912;15.214;2023-04-05T02:28:14;0.10;;;0.10;;
34814;SDS011;21030;53.912;15.214;2023-04-05T02:30:41;0.08;;;0.08;;
34814;SDS011;21030;53.912;15.214;2023-04-05T02:33:09;0.88;;;0.47;;
34814;SDS011;21030;53.912;15.214;2023-04-05T02:35:36;0.20;;;0.13;;
34814;SDS011;21030;53.912;15.214;2023-04-05T02:38:03;4.90;;;0.52;;
34814;SDS011;21030;53.912;15.214;2023-04-05T02:40:31;0.38;;;0.25;;
34814;SDS011;21030;53.912;15.214;2023-04-05T02:42:58;0.30;;;0.20;;
34814;SDS011;21030;53.912;15.214;2023-04-05T02:45:26;0.20;;;0.20;;
34814;SDS011;21030;53.912;15.214;2023-04-05T02:47:54;0.00;;;0.00;;
34814;SDS011;21030;53.912;15.214;2023-04-05T02:50:23;0.00;;;0.00;;
34814;SDS011;21030;53.912;15.214;2023-04-05T02:52:50;0.08;;;0.08;;
34814;SDS011;21030;53.912;15.214;2023-04-05T02:55:17;0.10;;;0.10;;
34814;SDS011;21030;53.912;15.214;2023-04-05T02:57:44;0.65;;;0.38;;
34814;SDS011;21030;53.912;15.214;2023-04-05T03:00:12;1.02;;;0.93;;
34814;SDS011;21030;53.912;15.214;2023-04-05T03:02:40;0.68;;;0.40;;
34814;SDS011;21030;53.912;15.214;2023-04-05T03:05:07;1.92;;;1.25;;
34814;SDS011;21030;53.912;15.214;2023-04-05T03:07:35;0.38;;;0.28;;
34814;SDS011;21030;53.912;15.214;2023-04-05T03:10:03;0.10;;;0.10;;
34814;SDS011;21030;53.912;15.214;2023-04-05T03:12:30;0.43;;;0.30;;
34814;SDS011;21030;53.912;15.214;2023-04-05T03:14:58;0.68;;;0.65;;
34814;SDS011;21030;53.912;15.214;2023-04-05T03:17:25;0.00;;;0.00;;
34814;SDS011;21030;53.912;15.214;2023-04-05T03:19:52;1.35;;;0.38;;
34814;SDS011;21030;53.912;15.214;2023-04-05T03:22:20;0.32;;;0.08;;
34814;SDS011;21030;53.912;15.214;2023-04-05T03:24:47;0.05;;;0.05;;
34814;SDS011;21030;53.912;15.214;2023-04-05T03:27:14;0.40;;;0.40;;
34814;SDS011;21030;53.912;15.214;2023-04-05T03:29:41;3.95;;;1.80;;
34814;SDS011;21030;53.912;15.214;2023-04-05T03:32:08;2.13;;;0.73;;
34814;SDS011;21030;53.912;15.214;2023-04-05T03:34:37;1.55;;;0.90;;
34814;SDS011;21030;53.912;15.214;2023-04-05T03:37:04;1.50;;;0.28;;
34814;SDS011;21030;53.912;15.214;2023-04-05T03:39:31;0.00;;;0.00;;
34814;SDS011;21030;53.912;15.214;2023-04-05T03:41:58;0.30;;;0.30;;
34814;SDS011;21030;53.912;15.214;2023-04-05T03:44:25;8.65;;;0.98;;
34814;SDS011;21030;53.912;15.214;2023-04-05T03:46:52;9.57;;;1.10;;
34814;SDS011;21030;53.912;15.214;2023-04-05T03:49:20;0.63;;;0.22;;
34814;SDS011;21030;53.912;15.214;2023-04-05T03:51:48;0.08;;;0.03;;
34814;SDS011;21030;53.912;15.214;2023-04-05T03:54:15;1.30;;;0.38;;
34814;SDS011;21030;53.912;15.214;2023-04-05T03:56:42;6.45;;;1.13;;
34814;SDS011;21030;53.912;15.214;2023-04-05T03:59:09;0.30;;;0.28;;
34814;SDS011;21030;53.912;15.214;2023-04-05T04:01:36;0.20;;;0.20;;
34814;SDS011;21030;53.912;15.214;2023-04-05T04:04:04;0.50;;;0.50;;
34814;SDS011;21030;53.912;15.214;2023-04-05T04:06:31;0.30;;;0.30;;
34814;SDS011;21030;53.912;15.214;2023-04-05T04:08:58;0.80;;;0.70;;
34814;SDS011;21030;53.912;15.214;2023-04-05T04:11:26;3.92;;;0.80;;
34814;SDS011;21030;53.912;15.214;2023-04-05T04:13:53;1.10;;;0.45;;
34814;SDS011;21030;53.912;15.214;2023-04-05T04:16:20;2.33;;;1.90;;
34814;SDS011;21030;53.912;15.214;2023-04-05T04:18:47;3.30;;;0.88;;
34814;SDS011;21030;53.912;15.214;2023-04-05T04:21:14;2.72;;;1.45;;
34814;SDS011;21030;53.912;15.214;2023-04-05T04:23:44;2.88;;;1.77;;
34814;SDS011;21030;53.912;15.214;2023-04-05T04:26:12;0.77;;;0.73;;
34814;SDS011;21030;53.912;15.214;2023-04-05T04:28:39;3.58;;;2.03;;
34814;SDS011;21030;53.912;15.214;2023-04-05T04:31:12;1.10;;;0.90;;
34814;SDS011;21030;53.912;15.214;2023-04-05T04:33:39;1.50;;;1.20;;
34814;SDS011;21030;53.912;15.214;2023-04-05T04:36:10;2.63;;;1.35;;
34814;SDS011;21030;53.912;15.214;2023-04-05T04:38:40;2.88;;;1.13;;
34814;SDS011;21030;53.912;15.214;2023-04-05T04:41:10;2.95;;;1.38;;
34814;SDS011;21030;53.912;15.214;2023-04-05T04:43:38;2.30;;;0.47;;
34814;SDS011;21030;53.912;15.214;2023-04-05T04:46:09;1.08;;;0.85;;
34814;SDS011;21030;53.912;15.214;2023-04-05T04:51:09;4.88;;;1.75;;
34814;SDS011;21030;53.912;15.214;2023-04-05T04:53:36;0.68;;;0.68;;
34814;SDS011;21030;53.912;15.214;2023-04-05T04:56:07;3.55;;;1.48;;
34814;SDS011;21030;53.912;15.214;2023-04-05T04:58:34;1.70;;;1.58;;
34814;SDS011;21030;53.912;15.214;2023-04-05T05:01:05;3.10;;;1.55;;
34814;SDS011;21030;53.912;15.214;2023-04-05T05:03:34;0.90;;;0.65;;
34814;SDS011;21030;53.912;15.214;2023-04-05T05:06:05;3.80;;;2.25;;
34814;SDS011;21030;53.912;15.214;2023-04-05T05:08:33;10.20;;;3.28;;
34814;SDS011;21030;53.912;15.214;2023-04-05T05:11:00;3.33;;;2.17;;
34814;SDS011;21030;53.912;15.214;2023-04-05T05:13:27;4.95;;;2.10;;
34814;SDS011;21030;53.912;15.214;2023-04-05T05:15:54;1.45;;;0.88;;
34814;SDS011;21030;53.912;15.214;2023-04-05T05:18:23;4.28;;;1.45;;
34814;SDS011;21030;53.912;15.214;2023-04-05T05:20:50;0.98;;;0.63;;
34814;SDS011;21030;53.912;15.214;2023-04-05T05:23:18;0.28;;;0.28;;
34814;SDS011;21030;53.912;15.214;2023-04-05T05:25:46;0.43;;;0.43;;
34814;SDS011;21030;53.912;15.214;2023-04-05T05:28:13;2.75;;;2.00;;
34814;SDS011;21030;53.912;15.214;2023-04-05T05:30:42;0.25;;;0.25;;
34814;SDS011;21030;53.912;15.214;2023-04-05T05:33:09;17.90;;;1.98;;
34814;SDS011;21030;53.912;15.214;2023-04-05T05:35:36;1.65;;;0.47;;
34814;SDS011;21030;53.912;15.214;2023-04-05T05:38:03;3.75;;;2.03;;
34814;SDS011;21030;53.912;15.214;2023-04-05T05:40:34;0.95;;;0.60;;
34814;SDS011;21030;53.912;15.214;2023-04-05T05:43:01;4.97;;;1.25;;
34814;SDS011;21030;53.912;15.214;2023-04-05T05:45:30;4.55;;;2.17;;
34814;SDS011;21030;53.912;15.214;2023-04-05T05:47:59;2.75;;;2.22;;
34814;SDS011;21030;53.912;15.214;2023-04-05T05:50:26;14.73;;;3.60;;
34814;SDS011;21030;53.912;15.214;2023-04-05T05:52:58;10.15;;;2.63;;
34814;SDS011;21030;53.912;15.214;2023-04-05T05:55:27;10.73;;;3.65;;
34814;SDS011;21030;53.912;15.214;2023-04-05T05:57:54;10.38;;;3.53;;
34814;SDS011;21030;53.912;15.214;2023-04-05T06:00:21;8.27;;;3.25;;
34814;SDS011;21030;53.912;15.214;2023-04-05T06:02:49;3.13;;;2.30;;
34814;SDS011;21030;53.912;15.214;2023-04-05T06:05:17;4.75;;;2.40;;
34814;SDS011;21030;53.912;15.214;2023-04-05T06:07:44;6.18;;;2.85;;
34814;SDS011;21030;53.912;15.214;2023-04-05T06:10:11;11.13;;;3.92;;
34814;SDS011;21030;53.912;15.214;2023-04-05T06:12:39;4.88;;;4.25;;
34814;SDS011;21030;53.912;15.214;2023-04-05T06:15:06;3.00;;;2.33;;
34814;SDS011;21030;53.912;15.214;2023-04-05T06:17:34;5.45;;;2.95;;
34814;SDS011;21030;53.912;15.214;2023-04-05T06:20:10;4.57;;;2.50;;
34814;SDS011;21030;53.912;15.214;2023-04-05T06:22:38;8.50;;;3.30;;
34814;SDS011;21030;53.912;15.214;2023-04-05T06:25:07;7.35;;;2.35;;
34814;SDS011;21030;53.912;15.214;2023-04-05T06:27:34;3.05;;;1.70;;
34814;SDS011;21030;53.912;15.214;2023-04-05T06:30:02;2.90;;;1.95;;
34814;SDS011;21030;53.912;15.214;2023-04-05T06:32:29;3.47;;;1.40;;
34814;SDS011;21030;53.912;15.214;2023-04-05T06:34:56;0.73;;;0.73;;
34814;SDS011;21030;53.912;15.214;2023-04-05T06:37:23;1.65;;;0.95;;
34814;SDS011;21030;53.912;15.214;2023-04-05T06:39:50;3.10;;;1.98;;
34814;SDS011;21030;53.912;15.214;2023-04-05T06:42:17;6.00;;;3.42;;
34814;SDS011;21030;53.912;15.214;2023-04-05T06:44:45;6.63;;;2.90;;
34814;SDS011;21030;53.912;15.214;2023-04-05T06:47:12;2.00;;;1.75;;
34814;SDS011;21030;53.912;15.214;2023-04-05T06:49:39;5.13;;;2.05;;
34814;SDS011;21030;53.912;15.214;2023-04-05T06:52:06;2.78;;;1.45;;
34814;SDS011;21030;53.912;15.214;2023-04-05T06:54:36;0.65;;;0.35;;
34814;SDS011;21030;53.912;15.214;2023-04-05T06:57:03;2.10;;;0.75;;
34814;SDS011;21030;53.912;15.214;2023-04-05T06:59:32;1.45;;;0.70;;
34814;SDS011;21030;53.912;15.214;2023-04-05T07:01:59;0.52;;;0.38;;
34814;SDS011;21030;53.912;15.214;2023-04-05T07:04:26;0.52;;;0.45;;
34814;SDS011;21030;53.912;15.214;2023-04-05T07:06:59;0.57;;;0.40;;
34814;SDS011;21030;53.912;15.214;2023-04-05T07:09:27;0.60;;;0.50;;
34814;SDS011;21030;53.912;15.214;2023-04-05T07:12:01;0.57;;;0.35;;
34814;SDS011;21030;53.912;15.214;2023-04-05T07:14:34;0.35;;;0.30;;
34814;SDS011;21030;53.912;15.214;2023-04-05T07:17:05;2.33;;;0.50;;
34814;SDS011;21030;53.912;15.214;2023-04-05T07:19:32;0.60;;;0.47;;
34814;SDS011;21030;53.912;15.214;2023-04-05T07:22:00;0.15;;;0.15;;
34814;SDS011;21030;53.912;15.214;2023-04-05T07:24:27;0.10;;;0.10;;
34814;SDS011;21030;53.912;15.214;2023-04-05T07:26:55;0.70;;;0.22;;
34814;SDS011;21030;53.912;15.214;2023-04-05T07:29:22;0.43;;;0.43;;
34814;SDS011;21030;53.912;15.214;2023-04-05T07:31:49;0.08;;;0.00;;
34814;SDS011;21030;53.912;15.214;2023-04-05T07:34:16;1.27;;;0.38;;
34814;SDS011;21030;53.912;15.214;2023-04-05T07:36:43;1.17;;;0.47;;
34814;SDS011;21030;53.912;15.214;2023-04-05T07:39:12;0.35;;;0.20;;
34814;SDS011;21030;53.912;15.214;2023-04-05T07:41:39;0.60;;;0.43;;
34814;SDS011;21030;53.912;15.214;2023-04-05T07:44:08;0.10;;;0.10;;
34814;SDS011;21030;53.912;15.214;2023-04-05T07:46:36;0.50;;;0.20;;
34814;SDS011;21030;53.912;15.214;2023-04-05T07:49:04;0.20;;;0.10;;
34814;SDS011;21030;53.912;15.214;2023-04-05T07:51:31;0.20;;;0.20;;
34814;SDS011;21030;53.912;15.214;2023-04-05T07:54:01;0.10;;;0.10;;
34814;SDS011;21030;53.912;15.214;2023-04-05T07:56:29;0.55;;;0.32;;
34814;SDS011;21030;53.912;15.214;2023-04-05T07:58:56;0.45;;;0.28;;
34814;SDS011;21030;53.912;15.214;2023-04-05T08:01:24;0.85;;;0.35;;
34814;SDS011;21030;53.912;15.214;2023-04-05T08:03:54;3.50;;;0.80;;
34814;SDS011;21030;53.912;15.214;2023-04-05T08:06:24;1.08;;;0.88;;
34814;SDS011;21030;53.912;15.214;2023-04-05T08:08:52;0.38;;;0.30;;
34814;SDS011;21030;53.912;15.214;2023-04-05T08:11:19;0.10;;;0.10;;
34814;SDS011;21030;53.912;15.214;2023-04-05T08:13:47;1.10;;;0.50;;
34814;SDS011;21030;53.912;15.214;2023-04-05T08:16:14;0.22;;;0.15;;
34814;SDS011;21030;53.912;15.214;2023-04-05T08:18:41;1.65;;;0.57;;
34814;SDS011;21030;53.912;15.214;2023-04-05T08:21:08;0.17;;;0.17;;
34814;SDS011;21030;53.912;15.214;2023-04-05T08:23:35;0.08;;;0.08;;
34814;SDS011;21030;53.912;15.214;2023-04-05T08:26:02;0.60;;;0.30;;
34814;SDS011;21030;53.912;15.214;2023-04-05T08:28:30;0.20;;;0.20;;
34814;SDS011;21030;53.912;15.214;2023-04-05T08:30:57;0.45;;;0.20;;
34814;SDS011;21030;53.912;15.214;2023-04-05T08:33:24;1.15;;;0.52;;
34814;SDS011;21030;53.912;15.214;2023-04-05T08:35:56;0.55;;;0.50;;
34814;SDS011;21030;53.912;15.214;2023-04-05T08:38:23;2.00;;;0.68;;
34814;SDS011;21030;53.912;15.214;2023-04-05T08:40:50;0.65;;;0.35;;
34814;SDS011;21030;53.912;15.214;2023-04-05T08:43:36;1.02;;;0.63;;
34814;SDS011;21030;53.912;15.214;2023-04-05T08:46:16;3.00;;;1.27;;
34814;SDS011;21030;53.912;15.214;2023-04-05T08:48:44;1.75;;;1.00;;
34814;SDS011;21030;53.912;15.214;2023-04-05T08:51:11;0.00;;;0.00;;
34814;SDS011;21030;53.912;15.214;2023-04-05T08:53:38;5.28;;;1.38;;
34814;SDS011;21030;53.912;15.214;2023-04-05T08:56:05;0.73;;;0.40;;
34814;SDS011;21030;53.912;15.214;2023-04-05T08:58:33;0.17;;;0.17;;
34814;SDS011;21030;53.912;15.214;2023-04-05T09:01:03;0.63;;;0.55;;
34814;SDS011;21030;53.912;15.214;2023-04-05T09:03:35;0.47;;;0.35;;
34814;SDS011;21030;53.912;15.214;2023-04-05T09:06:06;1.35;;;0.32;;
34814;SDS011;21030;53.912;15.214;2023-04-05T09:08:37;0.63;;;0.50;;
34814;SDS011;21030;53.912;15.214;2023-04-05T09:11:05;1.63;;;0.63;;
34814;SDS011;21030;53.912;15.214;2023-04-05T09:13:32;0.85;;;0.38;;
34814;SDS011;21030;53.912;15.214;2023-04-05T09:15:59;0.47;;;0.28;;
34814;SDS011;21030;53.912;15.214;2023-04-05T09:18:27;5.93;;;0.75;;
34814;SDS011;21030;53.912;15.214;2023-04-05T09:21:01;1.20;;;0.50;;
34814;SDS011;21030;53.912;15.214;2023-04-05T09:23:35;0.22;;;0.00;;
34814;SDS011;21030;53.912;15.214;2023-04-05T09:26:22;0.55;;;0.38;;
34814;SDS011;21030;53.912;15.214;2023-04-05T09:28:50;0.95;;;0.35;;
34814;SDS011;21030;53.912;15.214;2023-04-05T09:31:31;1.08;;;0.75;;
34814;SDS011;21030;53.912;15.214;2023-04-05T09:34:03;0.10;;;0.10;;
34814;SDS011;21030;53.912;15.214;2023-04-05T09:36:34;0.50;;;0.35;;
34814;SDS011;21030;53.912;15.214;2023-04-05T09:39:08;1.95;;;1.08;;
34814;SDS011;21030;53.912;15.214;2023-04-05T09:41:35;0.10;;;0.10;;
34814;SDS011;21030;53.912;15.214;2023-04-05T09:44:02;0.20;;;0.20;;
34814;SDS011;21030;53.912;15.214;2023-04-05T09:46:32;0.13;;;0.13;;
34814;SDS011;21030;53.912;15.214;2023-04-05T09:49:03;0.40;;;0.25;;
34814;SDS011;21030;53.912;15.214;2023-04-05T09:51:34;1.17;;;0.50;;
34814;SDS011;21030;53.912;15.214;2023-04-05T09:54:03;0.00;;;0.00;;
34814;SDS011;21030;53.912;15.214;2023-04-05T09:56:36;0.10;;;0.00;;
34814;SDS011;21030;53.912;15.214;2023-04-05T09:59:07;0.55;;;0.30;;
34814;SDS011;21030;53.912;15.214;2023-04-05T10:01:37;2.92;;;0.38;;
34814;SDS011;21030;53.912;15.214;2023-04-05T10:04:06;0.50;;;0.38;;
34814;SDS011;21030;53.912;15.214;2023-04-05T10:06:37;0.65;;;0.10;;
34814;SDS011;21030;53.912;15.214;2023-04-05T10:09:07;2.13;;;1.10;;
34814;SDS011;21030;53.912;15.214;2023-04-05T10:11:35;1.35;;;0.60;;
34814;SDS011;21030;53.912;15.214;2023-04-05T10:14:04;0.55;;;0.28;;
34814;SDS011;21030;53.912;15.214;2023-04-05T10:16:39;0.00;;;0.00;;
34814;SDS011;21030;53.912;15.214;2023-04-05T10:19:43;0.45;;;0.40;;
34814;SDS011;21030;53.912;15.214;2023-04-05T10:22:25;1.13;;;0.20;;
34814;SDS011;21030;53.912;15.214;2023-04-05T10:25:18;0.98;;;0.10;;
34814;SDS011;21030;53.912;15.214;2023-04-05T10:27:47;0.05;;;0.05;;
34814;SDS011;21030;53.912;15.214;2023-04-05T10:30:22;1.92;;;0.65;;
34814;SDS011;21030;53.912;15.214;2023-04-05T10:41:35;1.00;;;0.57;;
34814;SDS011;21030;53.912;15.214;2023-04-05T10:44:05;0.32;;;0.10;;
34814;SDS011;21030;53.912;15.214;2023-04-05T10:46:51;0.93;;;0.52;;
34814;SDS011;21030;53.912;15.214;2023-04-05T10:49:28;0.57;;;0.40;;
34814;SDS011;21030;53.912;15.214;2023-04-05T10:52:12;0.65;;;0.57;;
34814;SDS011;21030;53.912;15.214;2023-04-05T10:54:41;0.00;;;0.00;;
34814;SDS011;21030;53.912;15.214;2023-04-05T10:57:09;0.50;;;0.30;;
34814;SDS011;21030;53.912;15.214;2023-04-05T10:59:41;2.63;;;0.52;;
34814;SDS011;21030;53.912;15.214;2023-04-05T11:02:10;0.70;;;0.60;;
34814;SDS011;21030;53.912;15.214;2023-04-05T11:04:39;2.97;;;0.85;;
34814;SDS011;21030;53.912;15.214;2023-04-05T11:07:09;0.80;;;0.40;;
34814;SDS011;21030;53.912;15.214;2023-04-05T11:15:27;0.28;;;0.25;;
34814;SDS011;21030;53.912;15.214;2023-04-05T11:23:14;1.10;;;0.43;;
34814;SDS011;21030;53.912;15.214;2023-04-05T11:25:53;0.80;;;0.73;;
34814;SDS011;21030;53.912;15.214;2023-04-05T11:28:36;0.80;;;0.40;;
34814;SDS011;21030;53.912;15.214;2023-04-05T11:31:14;0.22;;;0.10;;
34814;SDS011;21030;53.912;15.214;2023-04-05T11:41:52;1.65;;;0.55;;
34814;SDS011;21030;53.912;15.214;2023-04-05T11:44:28;0.00;;;0.00;;
34814;SDS011;21030;53.912;15.214;2023-04-05T11:47:04;1.27;;;0.75;;
34814;SDS011;21030;53.912;15.214;2023-04-05T11:49:32;0.90;;;0.30;;
34814;SDS011;21030;53.912;15.214;2023-04-05T11:52:08;0.70;;;0.30;;
34814;SDS011;21030;53.912;15.214;2023-04-05T11:54:43;1.05;;;0.65;;
34814;SDS011;21030;53.912;15.214;2023-04-05T11:57:13;0.85;;;0.40;;
34814;SDS011;21030;53.912;15.214;2023-04-05T11:59:41;0.28;;;0.15;;
34814;SDS011;21030;53.912;15.214;2023-04-05T12:02:09;0.52;;;0.35;;
34814;SDS011;21030;53.912;15.214;2023-04-05T12:04:38;1.02;;;0.20;;
34814;SDS011;21030;53.912;15.214;2023-04-05T12:12:38;1.20;;;0.65;;
34814;SDS011;21030;53.912;15.214;2023-04-05T12:15:07;1.17;;;0.50;;
34814;SDS011;21030;53.912;15.214;2023-04-05T12:17:43;1.08;;;0.25;;
34814;SDS011;21030;53.912;15.214;2023-04-05T12:20:12;1.20;;;0.40;;
34814;SDS011;21030;53.912;15.214;2023-04-05T12:22:42;0.10;;;0.10;;
34814;SDS011;21030;53.912;15.214;2023-04-05T12:25:10;3.60;;;0.63;;
34814;SDS011;21030;53.912;15.214;2023-04-05T12:27:38;0.90;;;0.30;;
34814;SDS011;21030;53.912;15.214;2023-04-05T12:30:18;0.40;;;0.17;;
34814;SDS011;21030;53.912;15.214;2023-04-05T12:32:50;0.13;;;0.13;;
34814;SDS011;21030;53.912;15.214;2023-04-05T12:35:20;0.20;;;0.20;;
34814;SDS011;21030;53.912;15.214;2023-04-05T12:37:58;1.13;;;0.52;;
34814;SDS011;21030;53.912;15.214;2023-04-05T12:40:32;0.98;;;0.35;;
34814;SDS011;21030;53.912;15.214;2023-04-05T12:43:01;2.05;;;0.28;;
34814;SDS011;21030;53.912;15.214;2023-04-05T12:45:32;0.47;;;0.22;;
34814;SDS011;21030;53.912;15.214;2023-04-05T12:48:08;0.75;;;0.20;;
34814;SDS011;21030;53.912;15.214;2023-04-05T12:50:42;0.17;;;0.10;;
34814;SDS011;21030;53.912;15.214;2023-04-05T12:53:17;0.43;;;0.28;;
34814;SDS011;21030;53.912;15.214;2023-04-05T12:55:47;0.65;;;0.47;;
34814;SDS011;21030;53.912;15.214;2023-04-05T12:58:17;0.68;;;0.30;;
34814;SDS011;21030;53.912;15.214;2023-04-05T13:00:45;2.10;;;0.57;;
34814;SDS011;21030;53.912;15.214;2023-04-05T13:03:16;4.10;;;1.17;;
34814;SDS011;21030;53.912;15.214;2023-04-05T13:05:46;0.60;;;0.50;;
34814;SDS011;21030;53.912;15.214;2023-04-05T13:08:15;0.28;;;0.20;;
34814;SDS011;21030;53.912;15.214;2023-04-05T13:10:45;1.08;;;0.50;;
34814;SDS011;21030;53.912;15.214;2023-04-05T13:13:15;1.85;;;0.73;;
34814;SDS011;21030;53.912;15.214;2023-04-05T13:15:43;0.57;;;0.35;;
34814;SDS011;21030;53.912;15.214;2023-04-05T13:18:12;0.65;;;0.40;;
34814;SDS011;21030;53.912;15.214;2023-04-05T13:20:41;0.65;;;0.50;;
34814;SDS011;21030;53.912;15.214;2023-04-05T13:23:10;0.95;;;0.43;;
34814;SDS011;21030;53.912;15.214;2023-04-05T13:25:39;0.20;;;0.20;;
34814;SDS011;21030;53.912;15.214;2023-04-05T13:28:08;0.83;;;0.50;;
34814;SDS011;21030;53.912;15.214;2023-04-05T13:30:36;0.30;;;0.20;;
34814;SDS011;21030;53.912;15.214;2023-04-05T13:33:03;0.20;;;0.10;;
34814;SDS011;21030;53.912;15.214;2023-04-05T13:35:30;0.80;;;0.30;;
34814;SDS011;21030;53.912;15.214;2023-04-05T13:37:58;0.00;;;0.00;;
34814;SDS011;21030;53.912;15.214;2023-04-05T13:40:29;1.45;;;0.50;;
34814;SDS011;21030;53.912;15.214;2023-04-05T13:42:59;1.35;;;0.70;;
34814;SDS011;21030;53.912;15.214;2023-04-05T13:45:27;0.32;;;0.22;;
34814;SDS011;21030;53.912;15.214;2023-04-05T13:47:55;2.78;;;1.25;;
34814;SDS011;21030;53.912;15.214;2023-04-05T13:50:23;4.60;;;2.33;;
34814;SDS011;21030;53.912;15.214;2023-04-05T13:52:50;1.50;;;0.60;;
34814;SDS011;21030;53.912;15.214;2023-04-05T13:55:18;3.35;;;1.13;;
34814;SDS011;21030;53.912;15.214;2023-04-05T13:57:46;2.40;;;0.60;;
34814;SDS011;21030;53.912;15.214;2023-04-05T14:00:13;2.38;;;0.50;;
34814;SDS011;21030;53.912;15.214;2023-04-05T14:02:40;1.60;;;0.57;;
34814;SDS011;21030;53.912;15.214;2023-04-05T14:05:08;6.32;;;1.42;;
34814;SDS011;21030;53.912;15.214;2023-04-05T14:07:35;0.85;;;0.38;;
34814;SDS011;21030;53.912;15.214;2023-04-05T14:10:03;0.90;;;0.60;;
34814;SDS011;21030;53.912;15.214;2023-04-05T14:12:32;1.10;;;0.43;;
34814;SDS011;21030;53.912;15.214;2023-04-05T14:15:00;0.13;;;0.13;;
34814;SDS011;21030;53.912;15.214;2023-04-05T14:17:27;0.95;;;0.73;;
34814;SDS011;21030;53.912;15.214;2023-04-05T14:19:54;1.38;;;1.08;;
34814;SDS011;21030;53.912;15.214;2023-04-05T14:22:21;2.72;;;0.55;;
34814;SDS011;21030;53.912;15.214;2023-04-05T14:24:48;4.25;;;0.85;;
34814;SDS011;21030;53.912;15.214;2023-04-05T14:27:15;1.45;;;1.02;;
34814;SDS011;21030;53.912;15.214;2023-04-05T14:29:42;3.42;;;1.67;;
34814;SDS011;21030;53.912;15.214;2023-04-05T14:32:11;7.22;;;1.13;;
34814;SDS011;21030;53.912;15.214;2023-04-05T14:34:38;1.25;;;0.25;;
34814;SDS011;21030;53.912;15.214;2023-04-05T14:37:05;0.77;;;0.50;;
34814;SDS011;21030;53.912;15.214;2023-04-05T14:39:33;2.83;;;1.30;;
34814;SDS011;21030;53.912;15.214;2023-04-05T14:42:00;0.93;;;0.20;;
34814;SDS011;21030;53.912;15.214;2023-04-05T14:44:27;0.98;;;0.38;;
34814;SDS011;21030;53.912;15.214;2023-04-05T14:46:54;1.13;;;0.65;;
34814;SDS011;21030;53.912;15.214;2023-04-05T14:49:21;1.00;;;0.50;;
34814;SDS011;21030;53.912;15.214;2023-04-05T14:51:49;0.63;;;0.38;;
34814;SDS011;21030;53.912;15.214;2023-04-05T14:54:16;0.50;;;0.20;;
34814;SDS011;21030;53.912;15.214;2023-04-05T14:56:43;3.53;;;0.95;;
34814;SDS011;21030;53.912;15.214;2023-04-05T14:59:11;1.40;;;1.05;;
34814;SDS011;21030;53.912;15.214;2023-04-05T15:01:38;2.25;;;0.65;;
34814;SDS011;21030;53.912;15.214;2023-04-05T15:04:07;1.13;;;0.63;;
34814;SDS011;21030;53.912;15.214;2023-04-05T15:06:35;4.00;;;0.98;;
34814;SDS011;21030;53.912;15.214;2023-04-05T15:09:02;0.40;;;0.40;;
34814;SDS011;21030;53.912;15.214;2023-04-05T15:11:30;1.83;;;0.20;;
34814;SDS011;21030;53.912;15.214;2023-04-05T15:14:01;1.38;;;0.30;;
34814;SDS011;21030;53.912;15.214;2023-04-05T15:16:28;3.55;;;0.85;;
34814;SDS011;21030;53.912;15.214;2023-04-05T15:18:55;0.47;;;0.32;;
34814;SDS011;21030;53.912;15.214;2023-04-05T15:21:24;0.10;;;0.00;;
34814;SDS011;21030;53.912;15.214;2023-04-05T15:23:52;0.40;;;0.20;;
34814;SDS011;21030;53.912;15.214;2023-04-05T15:26:19;0.08;;;0.08;;
34814;SDS011;21030;53.912;15.214;2023-04-05T15:28:47;0.43;;;0.22;;
34814;SDS011;21030;53.912;15.214;2023-04-05T15:31:14;13.45;;;0.65;;
34814;SDS011;21030;53.912;15.214;2023-04-05T15:33:41;1.17;;;0.47;;
34814;SDS011;21030;53.912;15.214;2023-04-05T15:36:08;0.65;;;0.65;;